Time;durP1;ratioP1;P1;durP2;ratioP2;P2;SDS_P1;SDS_P2;PMS_P1;PMS_P2;Temp;Humidity;BMP_temperature;BMP_pressure;BME280_temperature;BME280_humidity;BME280_pressure;Samples;Min_cycle;Max_cycle;Signal;HPM_P1;HPM_P2
2023/05/20 00:02:22;;;;;;;2.17;1.20;;;;;;;12.86;46.65;100393.53;10411718;28;20041;-82
2023/05/20 00:07:24;;;;;;;3.88;1.33;;;;;;;12.91;46.51;100390.63;10410697;28;20478;-83
2023/05/20 00:12:26;;;;;;;1.38;1.00;;;;;;;12.90;46.66;100389.78;10409670;28;20037;-82
2023/05/20 00:17:28;;;;;;;2.50;1.23;;;;;;;13.00;46.43;100382.19;10393104;28;20045;-82
2023/05/20 00:22:30;;;;;;;1.70;1.10;;;;;;;13.08;46.06;100379.09;10398819;28;20108;-82
2023/05/20 00:27:32;;;;;;;5.25;1.10;;;;;;;13.02;46.25;100369.81;10381291;28;20061;-82
2023/05/20 00:32:34;;;;;;;1.15;1.00;;;;;;;13.11;46.27;100368.41;10399078;28;20068;-83
2023/05/20 00:37:36;;;;;;;2.22;1.30;;;;;;;13.21;46.04;100366.88;10447251;28;20434;-82
2023/05/20 00:42:38;;;;;;;2.13;1.13;;;;;;;13.24;45.65;100364.03;10365188;28;20052;-82
2023/05/20 00:47:41;;;;;;;1.75;1.20;;;;;;;13.35;45.70;100361.59;10409148;28;20054;-82
2023/05/20 00:52:44;;;;;;;1.70;1.13;;;;;;;13.48;45.54;100358.09;10409106;28;20049;-83
2023/05/20 00:57:47;;;;;;;4.28;1.17;;;;;;;13.52;45.48;100358.72;10408523;28;20063;-82
2023/05/20 01:02:49;;;;;;;1.65;1.02;;;;;;;13.61;45.79;100353.72;10415431;28;20442;-82
2023/05/20 01:07:51;;;;;;;2.42;1.40;;;;;;;13.60;45.68;100351.19;10392004;28;20136;-82
2023/05/20 01:12:59;;;;;;;1.95;1.30;;;;;;;13.71;45.97;100336.41;10367182;28;20052;-82
2023/05/20 01:18:04;;;;;;;2.13;1.27;;;;;;;13.68;45.57;100344.47;10401928;28;20224;-81
2023/05/20 01:23:07;;;;;;;2.80;1.40;;;;;;;13.68;45.82;100343.63;10408065;28;20165;-82
2023/05/20 01:28:09;;;;;;;3.13;1.20;;;;;;;13.67;46.46;100340.19;10408122;28;20497;-82
2023/05/20 01:33:15;;;;;;;1.98;1.38;;;;;;;13.73;46.24;100331.03;10408179;28;20141;-82
2023/05/20 01:38:18;;;;;;;3.42;1.20;;;;;;;13.70;46.66;100328.59;10391672;28;20045;-82
2023/05/20 01:43:21;;;;;;;1.55;1.00;;;;;;;13.64;46.76;100339.53;10406801;28;20045;-82
2023/05/20 01:48:23;;;;;;;2.17;1.30;;;;;;;13.61;46.44;100326.59;10407483;28;20103;-82
2023/05/20 01:53:26;;;;;;;2.35;1.25;;;;;;;13.72;46.74;100326.72;10382310;28;20476;-82
2023/05/20 01:58:28;;;;;;;1.85;1.15;;;;;;;13.70;46.41;100325.97;10407534;28;20045;-82
2023/05/20 02:03:30;;;;;;;2.92;1.52;;;;;;;13.71;46.66;100317.16;10408356;28;20099;-82
2023/05/20 02:08:33;;;;;;;3.20;1.50;;;;;;;13.73;46.57;100317.91;10397374;28;20041;-82
2023/05/20 02:13:35;;;;;;;1.90;1.20;;;;;;;13.77;46.38;100316.75;10412592;28;20077;-82
2023/05/20 02:18:37;;;;;;;2.33;1.30;;;;;;;13.75;46.51;100322.13;10397395;28;20047;-82
2023/05/20 02:23:39;;;;;;;1.90;1.30;;;;;;;13.76;46.43;100315.06;10416680;28;20060;-82
2023/05/20 02:28:45;;;;;;;2.08;1.30;;;;;;;13.68;47.14;100312.09;10420781;28;20141;-82
2023/05/20 02:33:47;;;;;;;2.10;1.25;;;;;;;13.68;46.77;100312.09;10404581;28;20044;-82
2023/05/20 02:38:50;;;;;;;3.05;1.27;;;;;;;13.75;47.02;100310.75;10402518;28;20050;-82
2023/05/20 02:43:51;;;;;;;2.03;1.27;;;;;;;13.75;47.08;100302.88;10398931;28;20133;-82
2023/05/20 02:48:54;;;;;;;3.20;1.50;;;;;;;13.69;47.48;100308.53;10420079;28;20080;-82
2023/05/20 02:53:57;;;;;;;2.05;1.35;;;;;;;13.68;47.35;100299.78;10403699;28;20072;-82
2023/05/20 02:58:59;;;;;;;2.28;1.40;;;;;;;13.57;47.48;100312.81;10403552;28;20572;-82
2023/05/20 03:04:02;;;;;;;3.35;1.80;;;;;;;13.61;47.39;100303.78;10396361;28;20054;-83
2023/05/20 03:09:04;;;;;;;2.45;1.42;;;;;;;13.57;47.57;100307.56;10373033;28;20547;-83
2023/05/20 03:14:06;;;;;;;2.72;1.48;;;;;;;13.51;47.80;100312.38;10397417;28;20049;-83
2023/05/20 03:19:08;;;;;;;3.10;1.67;;;;;;;13.37;47.94;100309.78;10396268;28;20069;-83
2023/05/20 03:24:10;;;;;;;2.67;1.60;;;;;;;13.30;48.18;100313.75;10407866;28;20084;-83
2023/05/20 03:29:13;;;;;;;2.35;1.50;;;;;;;13.23;48.45;100309.84;10371172;28;20123;-83
2023/05/20 03:34:15;;;;;;;2.88;1.63;;;;;;;13.00;48.60;100313.09;10378522;28;20140;-83
2023/05/20 03:39:18;;;;;;;2.00;1.42;;;;;;;12.95;48.98;100316.84;10411639;28;20652;-83
2023/05/20 03:44:20;;;;;;;3.47;1.80;;;;;;;12.77;49.15;100304.03;10411045;28;20487;-83
2023/05/20 03:49:22;;;;;;;2.50;1.33;;;;;;;12.58;49.90;100301.72;10410784;28;20049;-83
2023/05/20 03:54:26;;;;;;;3.00;1.38;;;;;;;12.66;49.71;100302.06;10410872;28;20053;-83
2023/05/20 03:59:29;;;;;;;2.65;1.60;;;;;;;12.77;49.43;100302.25;10410919;28;20054;-83
2023/05/20 04:04:31;;;;;;;2.72;1.52;;;;;;;12.83;49.68;100293.16;10394121;28;20056;-83
2023/05/20 04:09:33;;;;;;;3.72;1.60;;;;;;;12.89;49.76;100292.75;10409667;28;20123;-83
2023/05/20 04:14:37;;;;;;;2.72;1.42;;;;;;;12.91;49.39;100302.22;10410274;28;20106;-83
2023/05/20 04:19:39;;;;;;;3.17;1.60;;;;;;;13.11;49.73;100302.75;10393380;28;20083;-84
2023/05/20 04:24:41;;;;;;;3.00;1.65;;;;;;;13.20;49.51;100299.50;10384784;28;20042;-83
2023/05/20 04:29:46;;;;;;;3.85;1.77;;;;;;;13.34;49.17;100289.81;10409118;28;20503;-83
2023/05/20 04:34:49;;;;;;;2.42;1.40;;;;;;;13.51;49.23;100291.34;10392112;28;20056;-83
2023/05/20 04:39:51;;;;;;;3.05;1.58;;;;;;;13.68;49.11;100294.53;10387743;28;20055;-83
2023/05/20 04:44:53;;;;;;;3.85;1.60;;;;;;;13.75;49.06;100297.59;10380497;28;20041;-83
2023/05/20 04:49:56;;;;;;;2.97;1.50;;;;;;;14.01;48.98;100288.81;10400459;28;20076;-83
2023/05/20 04:55:00;;;;;;;2.85;1.60;;;;;;;14.11;48.74;100287.22;10396046;28;20046;-83
2023/05/20 05:00:06;;;;;;;2.78;1.70;;;;;;;14.23;48.51;100275.84;10405085;28;20042;-84
2023/05/20 05:05:08;;;;;;;2.15;1.27;;;;;;;14.12;48.66;100264.41;10396467;28;20081;-83
2023/05/20 05:10:10;;;;;;;4.00;1.60;;;;;;;14.34;48.54;100269.84;10401578;28;20514;-83
2023/05/20 05:15:13;;;;;;;1.63;1.30;;;;;;;14.39;48.44;100275.66;10391772;28;20045;-83
2023/05/20 05:20:16;;;;;;;3.78;1.63;;;;;;;14.24;48.95;100266.19;10380562;28;20052;-84
2023/05/20 05:25:19;;;;;;;2.60;1.65;;;;;;;14.27;49.15;100271.22;10395215;28;20073;-83
2023/05/20 05:30:21;;;;;;;2.95;1.77;;;;;;;14.01;48.94;100267.75;10399724;28;20143;-83
2023/05/20 05:35:23;;;;;;;3.10;1.67;;;;;;;14.31;48.67;100263.00;10403301;28;20046;-83
2023/05/20 05:40:25;;;;;;;2.53;1.60;;;;;;;14.65;48.36;100260.66;10377689;28;20045;-83
2023/05/20 05:45:28;;;;;;;2.95;1.50;;;;;;;14.91;48.04;100267.53;10396185;28;20235;-84
2023/05/20 05:50:30;;;;;;;2.83;1.60;;;;;;;15.01;47.72;100287.00;10401315;28;20061;-83
2023/05/20 05:55:32;;;;;;;3.13;1.70;;;;;;;14.94;47.85;100281.31;10405799;28;20057;-83
2023/05/20 06:00:35;;;;;;;3.92;1.70;;;;;;;15.13;47.57;100286.09;10407370;28;20231;-83
2023/05/20 06:05:36;;;;;;;4.35;1.70;;;;;;;14.82;47.75;100274.28;10405508;28;20688;-83
2023/05/20 06:10:39;;;;;;;2.08;1.52;;;;;;;14.71;48.09;100271.59;10399920;28;20129;-83
2023/05/20 06:15:41;;;;;;;2.88;1.50;;;;;;;14.34;49.37;100261.97;10410546;28;20056;-83
2023/05/20 06:20:43;;;;;;;2.67;1.70;;;;;;;14.53;49.13;100257.94;10393082;28;20053;-83
2023/05/20 06:25:48;;;;;;;2.95;1.80;;;;;;;15.15;48.11;100253.41;10379301;28;20398;-83
2023/05/20 06:30:51;;;;;;;2.40;1.70;;;;;;;15.82;47.09;100248.41;10402870;28;20515;-83
2023/05/20 06:35:56;;;;;;;3.25;1.80;;;;;;;16.30;46.51;100247.25;10392924;28;20683;-83
2023/05/20 06:40:58;;;;;;;2.35;1.52;;;;;;;16.11;46.23;100232.03;10399277;28;20515;-82
2023/05/20 06:46:01;;;;;;;4.05;1.92;;;;;;;16.33;46.30;100228.53;10392188;28;20085;-83
2023/05/20 06:51:09;;;;;;;3.33;1.80;;;;;;;15.99;47.12;100225.06;10411215;28;20045;-83
2023/05/20 06:56:13;;;;;;;3.88;1.88;;;;;;;15.96;46.72;100230.56;10376498;28;20490;-84
2023/05/20 07:01:15;;;;;;;3.50;1.80;;;;;;;16.68;46.04;100223.13;10401658;28;20046;-81
2023/05/20 07:06:20;;;;;;;3.50;1.92;;;;;;;16.90;45.60;100220.41;10378900;28;20088;-81
2023/05/20 07:11:22;;;;;;;4.13;1.90;;;;;;;16.48;45.92;100218.59;10407284;28;20041;-82
2023/05/20 07:16:24;;;;;;;3.75;2.08;;;;;;;16.64;46.05;100221.69;10397736;28;20049;-82
2023/05/20 07:21:29;;;;;;;3.85;2.00;;;;;;;16.84;45.92;100210.34;10400940;28;20045;-81
2023/05/20 07:27:11;;;;;;;3.22;2.03;;;;;;;17.23;45.06;100215.03;10376748;28;20141;-85
2023/05/20 07:32:13;;;;;;;3.47;2.25;;;;;;;17.36;44.66;100215.72;10418864;28;20046;-84
2023/05/20 07:37:16;;;;;;;4.85;2.00;;;;;;;17.58;44.90;100205.03;10381984;28;20054;-84
2023/05/20 07:42:19;;;;;;;3.70;2.10;;;;;;;18.70;43.89;100194.38;10401355;28;20521;-84
2023/05/20 07:47:25;;;;;;;3.75;2.10;;;;;;;19.10;42.70;100192.47;10407361;28;20052;-84
2023/05/20 07:52:29;;;;;;;3.38;2.20;;;;;;;19.83;41.81;100183.88;10398069;28;20049;-84
2023/05/20 07:57:43;;;;;;;3.28;1.88;;;;;;;20.50;40.85;100186.28;10421895;28;20057;-83
2023/05/20 08:02:47;;;;;;;3.58;2.05;;;;;;;21.56;39.02;100168.53;10405654;28;20092;-83
2023/05/20 08:07:56;;;;;;;3.95;2.08;;;;;;;22.94;38.08;100169.00;10380097;28;20042;-83
2023/05/20 08:13:01;;;;;;;3.97;2.20;;;;;;;21.36;36.85;100183.00;10358378;28;20666;-83
2023/05/20 08:18:04;;;;;;;3.42;2.10;;;;;;;19.82;39.47;100172.47;10427187;28;20061;-83
2023/05/20 08:23:07;;;;;;;5.10;2.83;;;;;;;19.43;41.10;100176.97;10430063;28;20061;-83
2023/05/20 08:28:09;;;;;;;3.58;2.22;;;;;;;20.17;40.35;100167.25;10388569;28;20823;-83
2023/05/20 08:33:14;;;;;;;3.72;2.40;;;;;;;20.83;39.40;100151.09;10405644;28;20045;-84
2023/05/20 08:38:17;;;;;;;4.68;2.35;;;;;;;19.90;38.91;100147.84;10399168;28;20136;-84
2023/05/20 08:43:19;;;;;;;5.82;2.42;;;;;;;19.26;40.54;100169.72;10394995;28;20037;-84
2023/05/20 08:48:26;;;;;;;3.67;2.25;;;;;;;18.63;42.06;100170.22;10376906;28;20049;-84
2023/05/20 08:53:31;;;;;;;5.75;2.67;;;;;;;18.67;42.17;100171.63;10384433;28;20030;-84
2023/05/20 08:58:38;;;;;;;5.03;2.80;;;;;;;18.97;42.07;100163.56;10381744;28;20515;-84
2023/05/20 09:03:47;;;;;;;6.32;3.03;;;;;;;18.66;42.12;100169.97;10372531;28;20045;-84
2023/05/20 09:08:51;;;;;;;4.35;2.72;;;;;;;19.09;41.80;100166.97;10380658;28;20053;-84
2023/05/20 09:13:56;;;;;;;6.78;2.90;;;;;;;18.52;42.71;100179.13;10388142;28;20457;-84
2023/05/20 09:19:00;;;;;;;4.10;2.40;;;;;;;19.09;42.15;100178.41;10392750;28;20406;-85
2023/05/20 09:24:02;;;;;;;4.18;2.53;;;;;;;18.51;42.74;100179.25;10372910;28;20107;-84
2023/05/20 09:29:05;;;;;;;5.60;2.60;;;;;;;18.84;42.27;100178.06;10375604;28;20049;-84
2023/05/20 09:34:07;;;;;;;4.43;2.80;;;;;;;19.68;41.46;100172.03;10386734;28;22051;-84
2023/05/20 09:39:18;;;;;;;5.00;2.90;;;;;;;18.87;42.22;100186.56;10380316;28;20038;-84
2023/05/20 09:44:23;;;;;;;4.43;2.80;;;;;;;18.42;43.29;100180.09;10390069;28;20096;-85
2023/05/20 09:49:28;;;;;;;3.60;2.40;;;;;;;18.25;43.66;100183.38;10373044;28;20053;-84
2023/05/20 09:54:31;;;;;;;5.00;2.83;;;;;;;17.68;44.41;100173.34;10393825;28;20033;-84
2023/05/20 09:59:37;;;;;;;5.20;2.72;;;;;;;17.73;44.86;100174.59;10377469;28;20042;-84
2023/05/20 10:04:46;;;;;;;4.50;2.97;;;;;;;18.41;44.36;100154.56;10392298;28;20061;-84
2023/05/20 10:10:18;;;;;;;4.72;2.65;;;;;;;18.41;43.80;100157.22;10397011;28;20053;-84
2023/05/20 10:15:36;;;;;;;4.70;2.83;;;;;;;19.08;43.25;100149.38;10374478;28;20060;-84
2023/05/20 10:20:46;;;;;;;4.20;2.67;;;;;;;19.21;42.63;100149.94;10372329;28;20718;-84
2023/05/20 10:26:12;;;;;;;4.43;2.70;;;;;;;19.33;43.25;100132.88;10377626;28;20042;-84
2023/05/20 10:31:17;;;;;;;5.05;2.72;;;;;;;19.35;42.44;100129.13;10378374;28;20084;-85
2023/05/20 10:36:27;;;;;;;5.32;2.83;;;;;;;18.68;43.17;100146.81;10379953;28;20049;-84
2023/05/20 10:41:30;;;;;;;4.78;2.60;;;;;;;19.13;43.19;100137.38;10385868;28;20045;-84
2023/05/20 10:46:34;;;;;;;4.88;2.88;;;;;;;19.52;42.13;100132.84;10397744;28;20063;-84
2023/05/20 10:51:58;;;;;;;3.95;2.40;;;;;;;19.20;43.09;100130.53;10409586;28;20129;-85
2023/05/20 10:57:08;;;;;;;5.18;2.85;;;;;;;18.75;43.45;100131.22;10376607;28;20538;-84
2023/05/20 11:02:15;;;;;;;5.20;2.90;;;;;;;19.03;43.56;100135.72;10401969;28;20068;-85
2023/05/20 11:07:30;;;;;;;4.57;2.75;;;;;;;18.97;43.69;100134.41;10387304;28;20496;-85
2023/05/20 11:12:33;;;;;;;4.25;2.70;;;;;;;19.38;42.99;100136.78;10376091;28;20033;-85
2023/05/20 11:17:37;;;;;;;5.22;2.95;;;;;;;19.14;43.45;100136.38;10387768;28;20057;-85
2023/05/20 11:22:39;;;;;;;8.45;3.33;;;;;;;18.67;44.16;100140.69;10370866;28;20140;-84
2023/05/20 11:27:42;;;;;;;5.63;2.60;;;;;;;18.95;43.40;100128.41;10382874;28;20056;-84
2023/05/20 11:33:00;;;;;;;4.03;2.50;;;;;;;18.75;43.49;100139.97;10407010;28;20038;-84
2023/05/20 11:38:10;;;;;;;5.00;2.50;;;;;;;18.49;44.20;100125.59;10380993;28;20053;-85
2023/05/20 11:43:14;;;;;;;4.65;2.88;;;;;;;18.16;45.17;100117.94;10408570;28;20045;-85
2023/05/20 11:48:18;;;;;;;4.40;2.50;;;;;;;18.58;43.99;100114.19;10398109;28;20117;-84
2023/05/20 11:53:22;;;;;;;4.53;2.70;;;;;;;18.44;44.48;100099.50;10378375;28;20057;-84
2023/05/20 11:58:30;;;;;;;5.47;2.58;;;;;;;19.11;43.58;100090.78;10376131;28;20141;-84
2023/05/20 12:03:32;;;;;;;4.90;2.90;;;;;;;20.12;42.05;100089.03;10392163;28;20037;-85
2023/05/20 12:08:35;;;;;;;4.40;2.78;;;;;;;20.02;40.95;100070.50;10384165;28;20076;-85
2023/05/20 12:13:39;;;;;;;5.10;2.88;;;;;;;19.44;42.52;100066.38;10390601;28;20069;-85
2023/05/20 12:18:41;;;;;;;3.88;2.50;;;;;;;19.71;42.05;100062.94;10386550;28;20663;-85
2023/05/20 12:23:46;;;;;;;4.60;2.83;;;;;;;19.57;42.40;100035.06;10394050;28;20091;-85
2023/05/20 12:28:51;;;;;;;5.00;2.90;;;;;;;19.65;42.35;100037.84;10338701;28;20050;-85
2023/05/20 12:33:57;;;;;;;4.65;2.78;;;;;;;19.66;41.92;100043.97;10363689;28;20056;-85
2023/05/20 12:39:09;;;;;;;5.88;3.33;;;;;;;19.54;42.31;100055.75;10341978;28;20046;-84
2023/05/20 12:44:12;;;;;;;4.43;2.90;;;;;;;19.68;42.17;100026.94;10366529;28;20451;-85
2023/05/20 12:49:16;;;;;;;5.45;3.05;;;;;;;19.60;41.79;100036.59;10360100;28;20050;-85
2023/05/20 12:54:20;;;;;;;4.95;2.70;;;;;;;19.61;42.64;100038.25;10363816;28;20919;-85
2023/05/20 12:59:27;;;;;;;5.03;2.70;;;;;;;19.31;42.32;100050.81;10344083;28;20054;-85
2023/05/20 13:04:30;;;;;;;5.13;2.60;;;;;;;19.50;42.50;100030.50;10364936;28;20423;-85
2023/05/20 13:09:37;;;;;;;6.70;2.60;;;;;;;19.41;42.55;100042.81;10356869;28;20041;-85
2023/05/20 13:14:40;;;;;;;4.20;2.58;;;;;;;19.84;41.54;100035.13;10357806;28;20048;-84
2023/05/20 13:19:42;;;;;;;4.25;2.67;;;;;;;19.61;41.60;100036.44;10342288;28;20424;-85
2023/05/20 13:24:44;;;;;;;4.95;2.92;;;;;;;19.39;42.31;100040.31;10369391;28;20046;-84
2023/05/20 13:29:46;;;;;;;5.32;2.85;;;;;;;19.34;42.22;100049.66;10383563;28;20049;-84
2023/05/20 13:34:48;;;;;;;4.40;2.42;;;;;;;19.26;42.15;100023.88;10400943;28;20124;-84
2023/05/20 13:39:50;;;;;;;3.92;2.53;;;;;;;19.23;42.27;100031.31;10377936;28;20740;-84
2023/05/20 13:44:53;;;;;;;4.57;2.75;;;;;;;19.31;42.41;100021.66;10374902;28;20045;-84
2023/05/20 13:49:55;;;;;;;4.70;2.80;;;;;;;19.60;41.98;100018.88;10383651;28;20509;-83
2023/05/20 13:54:58;;;;;;;3.92;2.50;;;;;;;19.63;41.91;100026.53;10397163;28;20034;-83
2023/05/20 14:00:00;;;;;;;4.72;2.70;;;;;;;19.60;42.21;100018.03;10384414;28;20048;-83
2023/05/20 14:05:09;;;;;;;3.65;2.38;;;;;;;19.80;41.68;100014.31;10385330;28;20104;-84
2023/05/20 14:10:11;;;;;;;4.00;2.45;;;;;;;19.87;41.75;99996.81;10385680;28;20479;-83
2023/05/20 14:15:13;;;;;;;4.45;2.50;;;;;;;19.35;42.52;100004.47;10396654;28;20491;-83
2023/05/20 14:20:16;;;;;;;5.00;3.08;;;;;;;19.72;41.97;99992.97;10413006;28;20104;-83
2023/05/20 14:25:18;;;;;;;4.80;2.70;;;;;;;19.09;42.25;99992.00;10405402;28;20081;-82
2023/05/20 14:30:21;;;;;;;4.88;2.97;;;;;;;18.87;42.92;99993.13;10379536;28;20476;-82
2023/05/20 14:35:23;;;;;;;4.43;2.70;;;;;;;19.20;43.27;99987.34;10389148;28;20042;-82
2023/05/20 14:40:26;;;;;;;3.58;2.40;;;;;;;19.75;42.07;99974.94;10412801;28;20060;-82
2023/05/20 14:45:28;;;;;;;4.85;2.70;;;;;;;19.56;42.09;99964.44;10394537;28;20650;-82
2023/05/20 14:50:32;;;;;;;4.47;2.63;;;;;;;19.68;42.12;99965.91;10399632;28;20490;-82
2023/05/20 14:55:36;;;;;;;4.43;2.65;;;;;;;19.45;42.29;99973.44;10365209;28;20099;-82
2023/05/20 15:00:38;;;;;;;3.97;2.35;;;;;;;19.53;41.65;99967.38;10409100;28;20076;-82
2023/05/20 15:05:41;;;;;;;4.18;2.30;;;;;;;19.50;41.95;99953.59;10400621;28;20121;-83
2023/05/20 15:10:44;;;;;;;5.90;3.00;;;;;;;19.61;41.76;99951.56;10411736;28;20042;-83
2023/05/20 15:15:49;;;;;;;4.30;2.83;;;;;;;19.86;41.26;99955.34;10379721;28;20070;-83
2023/05/20 15:20:53;;;;;;;4.32;2.40;;;;;;;19.84;41.44;99957.31;10386114;28;21071;-83
2023/05/20 15:25:57;;;;;;;4.05;2.22;;;;;;;19.77;41.90;99966.81;10358009;28;20049;-83
2023/05/20 15:31:00;;;;;;;3.60;2.17;;;;;;;19.60;42.25;99959.66;10402448;28;20080;-83
2023/05/20 15:36:02;;;;;;;4.82;2.78;;;;;;;19.67;41.80;99960.72;10386369;28;20115;-83
2023/05/20 15:41:06;;;;;;;5.28;2.72;;;;;;;19.74;42.17;99967.13;10406258;28;20045;-83
2023/05/20 15:46:10;;;;;;;4.70;2.60;;;;;;;19.75;42.05;99951.03;10386004;28;20049;-82
2023/05/20 15:51:13;;;;;;;4.40;2.58;;;;;;;19.44;41.99;99950.53;10392910;28;20095;-83
2023/05/20 15:56:15;;;;;;;5.45;2.60;;;;;;;19.37;42.54;99959.22;10406726;28;20034;-82
2023/05/20 16:01:17;;;;;;;5.47;2.85;;;;;;;19.67;42.29;99960.72;10403171;28;20519;-82
2023/05/20 16:06:19;;;;;;;5.13;2.83;;;;;;;19.59;42.57;99950.03;10415385;28;20048;-82
2023/05/20 16:11:21;;;;;;;8.43;2.90;;;;;;;19.74;42.05;99944.09;10401528;28;20128;-82
2023/05/20 16:16:24;;;;;;;4.75;2.50;;;;;;;19.43;41.79;99935.59;10393219;28;20069;-82
2023/05/20 16:21:27;;;;;;;5.55;2.63;;;;;;;19.12;42.66;99941.31;10387117;28;20045;-82
2023/05/20 16:26:30;;;;;;;3.95;2.70;;;;;;;18.84;43.05;99940.41;10400233;28;20056;-82
2023/05/20 16:31:32;;;;;;;4.82;2.65;;;;;;;18.65;43.58;99945.75;10381631;28;20503;-82
2023/05/20 16:36:35;;;;;;;4.72;2.70;;;;;;;19.02;43.34;99944.00;10410410;28;20046;-82
2023/05/20 16:41:37;;;;;;;5.20;3.10;;;;;;;19.21;42.81;99953.72;10393439;28;20082;-82
2023/05/20 16:46:39;;;;;;;5.07;3.13;;;;;;;19.20;42.90;99944.91;10395462;28;20542;-82
2023/05/20 16:51:41;;;;;;;5.47;3.15;;;;;;;18.98;43.32;99947.91;10392581;28;20043;-82
2023/05/20 16:56:44;;;;;;;6.13;2.95;;;;;;;19.09;43.05;99944.28;10409555;28;20465;-82
2023/05/20 17:01:45;;;;;;;4.88;2.78;;;;;;;19.21;43.15;99949.25;10405076;28;20487;-82
2023/05/20 17:06:48;;;;;;;5.30;3.08;;;;;;;19.04;43.31;99952.66;10418807;28;20483;-82
2023/05/20 17:11:51;;;;;;;5.13;2.72;;;;;;;18.83;43.49;99959.13;10405020;28;20045;-82
2023/05/20 17:16:53;;;;;;;5.05;2.90;;;;;;;18.72;43.46;99968.06;10407400;28;20060;-82
2023/05/20 17:21:55;;;;;;;4.60;2.67;;;;;;;18.65;43.79;99964.28;10395433;28;20069;-82
2023/05/20 17:26:57;;;;;;;5.10;3.10;;;;;;;18.49;44.11;99969.34;10384137;28;20045;-82
2023/05/20 17:31:59;;;;;;;5.30;2.95;;;;;;;18.82;43.80;99971.53;10384357;28;20041;-82
2023/05/20 17:37:01;;;;;;;4.20;2.80;;;;;;;18.63;43.90;99980.34;10395311;28;20047;-82
2023/05/20 17:42:03;;;;;;;5.22;3.08;;;;;;;19.03;43.90;99980.13;10392231;28;20483;-82
2023/05/20 17:47:05;;;;;;;5.18;3.03;;;;;;;18.73;43.78;99977.66;10385239;28;20509;-82
2023/05/20 17:52:07;;;;;;;6.05;3.30;;;;;;;18.69;44.20;99983.41;10397680;28;20112;-82
2023/05/20 17:57:09;;;;;;;5.65;3.22;;;;;;;18.60;44.48;99969.19;10403505;28;20864;-82
2023/05/20 18:02:11;;;;;;;4.80;3.00;;;;;;;18.33;44.85;99971.72;10370170;28;20049;-82
2023/05/20 18:07:13;;;;;;;6.90;3.33;;;;;;;18.28;44.98;99974.78;10383383;28;20399;-82
2023/05/20 18:12:15;;;;;;;5.90;3.20;;;;;;;18.22;45.29;99987.75;10384914;28;20075;-83
2023/05/20 18:17:17;;;;;;;7.28;3.55;;;;;;;18.01;45.30;99984.34;10420661;28;20087;-83
2023/05/20 18:22:19;;;;;;;5.97;3.38;;;;;;;17.75;46.24;99992.78;10405372;28;20053;-83
2023/05/20 18:27:21;;;;;;;5.65;3.17;;;;;;;17.75;46.13;99992.78;10407958;28;20053;-83
2023/05/20 18:32:27;;;;;;;5.45;3.20;;;;;;;17.59;46.77;99991.63;10375638;28;20053;-83
2023/05/20 18:37:29;;;;;;;6.00;3.10;;;;;;;17.36;47.43;99996.28;10390428;28;20407;-83
2023/05/20 18:42:31;;;;;;;5.35;3.35;;;;;;;17.14;47.70;99991.13;10380806;28;20054;-83
2023/05/20 18:47:33;;;;;;;5.72;3.22;;;;;;;16.96;47.94;100000.63;10388593;28;20046;-83
2023/05/20 18:52:35;;;;;;;6.28;3.55;;;;;;;16.92;48.58;100004.50;10407031;28;20123;-82
2023/05/20 18:57:37;;;;;;;7.18;3.83;;;;;;;16.85;48.56;99993.59;10405974;28;20383;-83
2023/05/20 19:02:39;;;;;;;6.28;3.20;;;;;;;16.93;48.61;99992.97;10374566;28;20129;-83
2023/05/20 19:07:41;;;;;;;5.78;3.60;;;;;;;16.90;48.78;100009.06;10373558;28;20120;-83
2023/05/20 19:12:43;;;;;;;7.25;3.80;;;;;;;16.97;48.58;100005.81;10408520;28;20055;-83
2023/05/20 19:17:45;;;;;;;5.65;3.38;;;;;;;17.06;48.91;100006.00;10412753;28;20053;-83
2023/05/20 19:22:47;;;;;;;6.45;3.63;;;;;;;16.94;48.78;100005.19;10411108;28;20042;-81
2023/05/20 19:27:49;;;;;;;6.10;3.65;;;;;;;16.81;49.25;100005.41;10370716;28;20089;-80
2023/05/20 19:32:51;;;;;;;6.10;3.50;;;;;;;16.71;49.83;100003.69;10400866;28;20044;-80
2023/05/20 19:37:53;;;;;;;6.40;3.65;;;;;;;16.42;49.99;100007.88;10387872;28;20081;-79
2023/05/20 19:42:55;;;;;;;7.28;3.90;;;;;;;16.34;50.26;100005.03;10399857;28;20559;-79
2023/05/20 19:47:57;;;;;;;9.00;3.92;;;;;;;16.44;50.51;100017.38;10380475;28;20041;-79
2023/05/20 19:53:00;;;;;;;7.45;4.00;;;;;;;16.40;50.69;100015.06;10378491;28;20182;-80
2023/05/20 19:58:01;;;;;;;7.00;3.75;;;;;;;16.35;50.65;100006.69;10408914;28;20038;-80
2023/05/20 20:03:06;;;;;;;6.43;4.07;;;;;;;16.28;50.80;100010.81;10407680;28;20048;-80
2023/05/20 20:08:08;;;;;;;8.57;4.18;;;;;;;16.13;51.28;100011.09;10377378;28;20041;-80
2023/05/20 20:13:10;;;;;;;7.22;3.67;;;;;;;16.05;51.43;100007.41;10391448;28;20410;-80
2023/05/20 20:18:11;;;;;;;6.55;4.03;;;;;;;16.05;51.49;100007.41;10400137;28;20403;-80
2023/05/20 20:23:13;;;;;;;6.80;4.18;;;;;;;16.01;51.94;100008.59;10403800;28;20049;-80
2023/05/20 20:28:15;;;;;;;5.63;3.83;;;;;;;15.91;51.81;99999.75;10389521;28;20071;-80
2023/05/20 20:33:18;;;;;;;6.90;3.83;;;;;;;15.78;52.36;99999.91;10379844;28;20033;-79
2023/05/20 20:38:20;;;;;;;6.15;3.88;;;;;;;15.96;52.01;100005.50;10384249;28;20052;-80
2023/05/20 20:43:22;;;;;;;7.18;3.95;;;;;;;15.95;52.22;99999.41;10381387;28;20041;-79
2023/05/20 20:48:25;;;;;;;7.32;3.83;;;;;;;15.94;52.41;100005.63;10376004;28;20050;-80
2023/05/20 20:53:28;;;;;;;8.07;4.22;;;;;;;15.91;52.13;99995.34;10406553;28;20042;-79
2023/05/20 20:58:33;;;;;;;6.63;3.85;;;;;;;15.94;52.42;99995.06;10389773;28;20433;-80
2023/05/20 21:03:38;;;;;;;7.55;4.10;;;;;;;15.89;52.63;99986.72;10374347;28;20045;-79
2023/05/20 21:08:41;;;;;;;8.18;4.57;;;;;;;15.78;52.65;99976.16;10402089;28;20491;-80
2023/05/20 21:13:44;;;;;;;6.88;4.00;;;;;;;15.80;52.71;99968.13;10365732;28;20037;-80
2023/05/20 21:18:48;;;;;;;8.10;4.38;;;;;;;15.75;52.88;99963.25;10391954;28;20095;-80
2023/05/20 21:23:53;;;;;;;8.68;4.07;;;;;;;15.71;53.03;99959.19;10384936;28;20857;-80
2023/05/20 21:28:55;;;;;;;8.88;4.43;;;;;;;15.66;53.12;99955.22;10383268;28;20050;-80
2023/05/20 21:33:57;;;;;;;7.95;4.30;;;;;;;15.62;53.47;99956.44;10380523;28;20497;-80
2023/05/20 21:38:59;;;;;;;6.80;4.35;;;;;;;15.58;53.45;99955.84;10369771;28;20064;-80
2023/05/20 21:44:02;;;;;;;8.68;4.20;;;;;;;15.65;53.68;99950.94;10388481;28;20047;-80
2023/05/20 21:49:05;;;;;;;7.07;3.90;;;;;;;15.50;53.85;99950.34;10381663;28;20088;-80
2023/05/20 21:54:07;;;;;;;7.20;4.22;;;;;;;15.49;54.01;99943.38;10382154;28;20038;-80
2023/05/20 21:59:09;;;;;;;7.65;4.55;;;;;;;15.53;53.96;99942.19;10389002;28;20412;-80
2023/05/20 22:04:10;;;;;;;8.07;4.22;;;;;;;15.57;54.26;99938.34;10383679;28;20072;-80
2023/05/20 22:09:13;;;;;;;7.45;4.40;;;;;;;15.57;54.24;99933.06;10367224;28;20103;-80
2023/05/20 22:14:15;;;;;;;8.95;4.60;;;;;;;15.45;54.21;99934.00;10370055;28;20042;-80
2023/05/20 22:19:17;;;;;;;8.13;4.40;;;;;;;15.32;54.47;99931.53;10367053;28;20046;-80
2023/05/20 22:24:19;;;;;;;7.60;4.20;;;;;;;15.17;54.92;99921.34;10399341;28;20037;-80
2023/05/20 22:29:21;;;;;;;10.05;4.80;;;;;;;15.11;54.80;99917.41;10396137;28;20508;-80
2023/05/20 22:34:23;;;;;;;8.43;4.45;;;;;;;14.95;55.27;99918.72;10404512;28;20048;-81
2023/05/20 22:39:25;;;;;;;9.48;4.88;;;;;;;14.91;55.25;99912.88;10383661;28;20049;-81
2023/05/20 22:44:27;;;;;;;7.85;4.13;;;;;;;14.98;55.48;99900.88;10355951;28;20054;-80
2023/05/20 22:49:29;;;;;;;10.32;4.57;;;;;;;14.89;55.93;99900.78;10383574;28;20046;-80
2023/05/20 22:54:31;;;;;;;8.63;4.55;;;;;;;14.78;55.99;99892.88;10395417;28;20048;-80
2023/05/20 22:59:33;;;;;;;9.50;4.30;;;;;;;14.77;56.23;99889.41;10374007;28;20046;-80
2023/05/20 23:04:34;;;;;;;9.07;4.28;;;;;;;14.65;56.26;99887.72;10388254;28;20438;-80
2023/05/20 23:09:36;;;;;;;9.20;4.80;;;;;;;14.66;56.32;99872.75;10410669;28;20046;-80
2023/05/20 23:14:38;;;;;;;9.20;4.55;;;;;;;14.73;56.34;99866.91;10393968;28;20052;-80
2023/05/20 23:19:40;;;;;;;9.40;4.68;;;;;;;14.78;56.45;99863.94;10409038;28;20103;-80